Time;durP1;ratioP1;P1;durP2;ratioP2;P2;SDS_P1;SDS_P2;PMS_P1;PMS_P2;Temp;Humidity;BMP_temperature;BMP_pressure;BME280_temperature;BME280_humidity;BME280_pressure;Samples;Min_cycle;Max_cycle;Signal;HPM_P1;HPM_P2
2022/08/05 00:03:41;;;;;;;9.67;8.87;;;;;;;18.45;100.00;101837.03;2000646;71;30794;-73
2022/08/05 00:09:26;;;;;;;8.80;8.40;;;;;;;18.54;100.00;101832.93;2011841;71;30895;-73
2022/08/05 00:15:12;;;;;;;8.83;8.43;;;;;;;18.13;100.00;101849.25;2009908;70;30808;-72
2022/08/05 00:20:57;;;;;;;8.83;8.43;;;;;;;18.36;100.00;101856.35;2004326;71;32949;-73
2022/08/05 00:26:47;;;;;;;9.20;8.70;;;;;;;18.35;100.00;101860.34;2007353;71;30939;-73
2022/08/05 00:32:33;;;;;;;9.93;9.27;;;;;;;18.27;100.00;101862.48;2013713;71;31286;-73
2022/08/05 00:38:18;;;;;;;9.40;8.90;;;;;;;18.27;100.00;101880.77;2002206;71;30862;-73
2022/08/05 00:44:04;;;;;;;9.50;8.80;;;;;;;18.29;100.00;101892.52;1999156;71;33345;-73
2022/08/05 00:49:49;;;;;;;9.13;8.63;;;;;;;18.35;100.00;101880.87;2014973;71;31371;-73
2022/08/05 00:55:34;;;;;;;9.07;8.53;;;;;;;18.24;100.00;101888.39;2000214;71;30860;-72
2022/08/05 01:01:21;;;;;;;9.50;8.87;;;;;;;18.05;100.00;101895.53;2004170;70;31437;-73
2022/08/05 01:07:06;;;;;;;9.47;9.07;;;;;;;18.00;100.00;101894.21;2004025;71;31447;-73
2022/08/05 01:12:54;;;;;;;9.73;9.20;;;;;;;17.96;100.00;101884.73;2004010;71;30908;-73
2022/08/05 01:15:28;;;;;;;9.20;8.77;;;;;;;17.84;100.00;101885.80;1983742;72;26207;-73
2022/08/05 01:21:22;;;;;;;9.40;9.00;;;;;;;17.71;100.00;101881.22;2003977;71;30849;-73
2022/08/05 01:27:15;;;;;;;9.23;8.73;;;;;;;17.51;100.00;101880.72;2016673;71;32930;-73
2022/08/05 01:33:06;;;;;;;9.63;9.13;;;;;;;17.56;100.00;101885.69;2000694;71;30789;-73
2022/08/05 01:38:52;;;;;;;8.83;8.43;;;;;;;17.41;100.00;101889.33;2009337;71;30888;-73
2022/08/05 01:44:39;;;;;;;9.17;8.67;;;;;;;17.56;100.00;101886.25;2009990;71;30790;-73
2022/08/05 01:50:32;;;;;;;9.50;9.10;;;;;;;17.60;100.00;101892.39;2011799;71;30829;-73
2022/08/05 01:56:21;;;;;;;10.10;9.50;;;;;;;17.60;100.00;101896.60;2011858;71;31295;-73
2022/08/05 02:02:09;;;;;;;9.20;8.70;;;;;;;17.45;100.00;101908.08;2004459;71;32890;-73
2022/08/05 02:07:56;;;;;;;9.33;8.87;;;;;;;17.51;100.00;101915.83;2018326;71;30910;-73
2022/08/05 02:13:47;;;;;;;9.70;9.20;;;;;;;17.42;100.00;101909.23;2006164;71;32810;-73
2022/08/05 02:16:21;;;;;;;9.23;8.83;;;;;;;17.48;100.00;101905.21;1973312;72;26203;-73
2022/08/05 02:18:56;;;;;;;9.37;8.87;;;;;;;17.52;100.00;101913.30;1962816;72;24144;-73
2022/08/05 02:24:46;;;;;;;9.60;9.10;;;;;;;17.57;100.00;101909.00;2004034;71;30866;-73
2022/08/05 02:30:35;;;;;;;9.40;8.80;;;;;;;17.48;100.00;101902.41;2004173;71;30858;-73
2022/08/05 02:36:23;;;;;;;9.10;8.57;;;;;;;17.35;100.00;101901.21;2011269;71;31334;-73
2022/08/05 02:42:10;;;;;;;10.00;9.50;;;;;;;17.25;100.00;101914.83;2009367;71;33336;-73
2022/08/05 02:47:58;;;;;;;9.73;9.33;;;;;;;17.20;100.00;101910.69;2016464;71;33339;-73
2022/08/05 02:53:44;;;;;;;9.80;9.10;;;;;;;17.00;100.00;101907.36;2018441;71;30860;-73
2022/08/05 02:59:32;;;;;;;9.23;8.80;;;;;;;16.84;100.00;101915.17;2018442;71;32799;-73
2022/08/05 03:05:18;;;;;;;9.77;9.10;;;;;;;16.78;100.00;101920.56;1998671;71;33458;-73
2022/08/05 03:11:03;;;;;;;9.17;8.77;;;;;;;16.80;100.00;101927.56;1997207;71;32728;-74
2022/08/05 03:16:48;;;;;;;9.60;8.97;;;;;;;17.06;100.00;101925.25;2015033;71;33419;-73
2022/08/05 03:22:33;;;;;;;9.63;9.07;;;;;;;16.93;100.00;101930.77;2011644;71;33283;-73
2022/08/05 03:28:19;;;;;;;9.30;8.80;;;;;;;16.99;100.00;101930.38;2010050;71;32916;-71
2022/08/05 03:34:05;;;;;;;9.97;9.13;;;;;;;17.17;100.00;101932.37;2013306;71;33353;-72
2022/08/05 03:40:07;;;;;;;9.10;8.70;;;;;;;17.02;100.00;101945.80;2018572;71;32791;-71
2022/08/05 03:45:48;;;;;;;9.80;9.30;;;;;;;17.07;100.00;101952.16;2011691;71;32755;-71
2022/08/05 03:51:38;;;;;;;10.10;9.50;;;;;;;16.97;100.00;101957.93;2009637;71;30836;-72
2022/08/05 03:57:28;;;;;;;9.70;9.17;;;;;;;16.96;100.00;101964.67;2003992;71;32891;-71
2022/08/05 04:03:18;;;;;;;10.20;9.30;;;;;;;16.94;100.00;101973.98;2011219;71;32803;-71
2022/08/05 04:09:05;;;;;;;10.00;9.40;;;;;;;16.79;100.00;101966.58;2004397;71;32811;-73
2022/08/05 04:14:51;;;;;;;11.03;10.37;;;;;;;16.76;100.00;101979.81;2004552;71;32792;-73
2022/08/05 04:20:36;;;;;;;10.37;9.87;;;;;;;16.83;100.00;101970.45;1995344;71;30810;-73
2022/08/05 04:26:21;;;;;;;9.83;9.30;;;;;;;16.81;100.00;101982.53;2003955;71;33314;-73
2022/08/05 04:32:07;;;;;;;10.10;9.50;;;;;;;16.68;100.00;101986.09;2015166;71;33328;-73
2022/08/05 04:37:53;;;;;;;10.10;9.50;;;;;;;16.70;100.00;101988.58;2000754;71;32734;-73
2022/08/05 04:43:38;;;;;;;10.07;9.67;;;;;;;16.66;100.00;102004.34;2002054;71;33224;-73
2022/08/05 04:49:22;;;;;;;10.30;9.80;;;;;;;16.66;100.00;102006.58;2011911;71;33252;-73
2022/08/05 04:55:09;;;;;;;10.00;9.40;;;;;;;16.59;100.00;102015.09;2006058;71;33304;-73
2022/08/05 05:00:54;;;;;;;10.00;9.40;;;;;;;16.57;100.00;102015.38;2011879;71;33200;-73
2022/08/05 05:06:38;;;;;;;9.83;9.33;;;;;;;16.44;100.00;102025.86;2001026;71;33267;-73
2022/08/05 05:12:25;;;;;;;11.10;10.53;;;;;;;16.41;100.00;102032.07;2003516;71;32851;-73
2022/08/05 05:18:11;;;;;;;11.57;10.90;;;;;;;16.36;100.00;102034.36;2013215;71;32894;-73
2022/08/05 05:23:57;;;;;;;11.97;11.37;;;;;;;16.33;100.00;102039.73;2014960;71;31410;-73
2022/08/05 05:29:42;;;;;;;11.70;11.10;;;;;;;16.19;100.00;102041.53;2009371;71;32823;-73
2022/08/05 05:35:27;;;;;;;11.87;11.37;;;;;;;16.16;100.00;102045.77;2011661;71;32816;-73
2022/08/05 05:41:14;;;;;;;12.60;12.00;;;;;;;16.17;100.00;102053.03;2003642;71;31043;-73
2022/08/05 05:46:59;;;;;;;13.23;12.60;;;;;;;16.10;100.00;102058.14;2014843;71;32830;-73
2022/08/05 05:52:45;;;;;;;14.47;13.77;;;;;;;16.00;100.00;102064.41;2009302;71;32818;-73
2022/08/05 05:58:30;;;;;;;14.70;14.00;;;;;;;15.97;100.00;102077.59;2010100;71;33342;-73
2022/08/05 06:04:14;;;;;;;14.70;13.90;;;;;;;15.86;100.00;102084.69;2004147;71;33337;-73
2022/08/05 06:09:59;;;;;;;14.43;13.67;;;;;;;15.95;100.00;102087.70;2013483;71;32908;-73
2022/08/05 06:15:44;;;;;;;14.63;13.87;;;;;;;15.98;100.00;102099.73;2013009;71;32846;-73
2022/08/05 06:21:31;;;;;;;15.00;14.00;;;;;;;15.99;100.00;102104.77;2001326;71;33271;-72
2022/08/05 06:27:16;;;;;;;14.63;13.53;;;;;;;16.00;100.00;102113.46;1998489;71;32839;-73
2022/08/05 06:33:01;;;;;;;13.97;13.17;;;;;;;16.05;100.00;102117.05;2004501;70;32779;-73
2022/08/05 06:38:49;;;;;;;13.77;12.90;;;;;;;16.14;100.00;102121.47;2018301;71;32815;-73
2022/08/05 06:44:33;;;;;;;13.67;12.87;;;;;;;16.58;100.00;102125.06;2000907;71;32808;-73
2022/08/05 06:50:21;;;;;;;12.97;12.27;;;;;;;16.25;100.00;102129.53;2014893;71;30890;-73
2022/08/05 06:56:07;;;;;;;13.80;13.20;;;;;;;16.14;100.00;102131.28;2001044;71;33338;-72
2022/08/05 07:01:53;;;;;;;13.13;12.33;;;;;;;16.38;100.00;102146.25;2005175;71;32905;-73
2022/08/05 07:07:39;;;;;;;12.40;11.80;;;;;;;16.31;100.00;102148.53;1999109;70;33363;-73
2022/08/05 07:19:28;;;;;;;13.40;12.40;;;;;;;16.48;100.00;102148.95;2016697;71;33335;-73
2022/08/05 07:25:13;;;;;;;11.47;10.77;;;;;;;16.71;100.00;102144.58;1999004;71;33291;-75
2022/08/05 07:30:58;;;;;;;12.03;11.30;;;;;;;16.80;100.00;102156.28;2006446;71;33310;-73
2022/08/05 07:36:44;;;;;;;10.63;9.87;;;;;;;17.16;100.00;102165.16;2006338;71;32858;-71
2022/08/05 07:42:29;;;;;;;10.17;9.43;;;;;;;17.35;100.00;102163.83;2016798;71;30951;-72
2022/08/05 07:48:14;;;;;;;11.73;11.03;;;;;;;17.53;100.00;102167.27;2006314;71;30824;-72
2022/08/05 07:53:58;;;;;;;11.40;10.50;;;;;;;18.09;100.00;102173.00;2016905;71;30920;-72
2022/08/05 07:59:43;;;;;;;11.03;10.17;;;;;;;18.50;100.00;102168.13;2003948;71;30871;-73
2022/08/05 08:05:28;;;;;;;10.73;10.03;;;;;;;19.80;100.00;102175.84;2016775;71;31459;-75
2022/08/05 08:11:14;;;;;;;10.40;9.90;;;;;;;19.79;100.00;102170.77;2018618;71;30871;-75
2022/08/05 08:17:00;;;;;;;10.27;9.57;;;;;;;20.73;100.00;102180.68;2003738;71;30924;-74
2022/08/05 08:22:46;;;;;;;10.83;10.00;;;;;;;20.69;100.00;102190.11;2015031;71;30975;-75
2022/08/05 08:28:31;;;;;;;10.60;9.90;;;;;;;21.30;100.00;102181.72;2013483;71;30859;-76
2022/08/05 08:34:17;;;;;;;10.63;10.00;;;;;;;21.39;100.00;102183.75;2015322;71;30878;-73
2022/08/05 08:40:07;;;;;;;10.07;9.30;;;;;;;21.23;100.00;102184.16;2013751;71;30916;-74
2022/08/05 08:45:55;;;;;;;10.13;9.47;;;;;;;21.60;100.00;102191.32;2015746;71;30867;-73
2022/08/05 08:51:42;;;;;;;9.53;8.90;;;;;;;21.58;100.00;102186.55;2007109;70;31285;-73
2022/08/05 08:57:28;;;;;;;9.73;9.03;;;;;;;21.76;100.00;102199.60;2001504;71;30805;-72
2022/08/05 09:03:14;;;;;;;10.00;9.50;;;;;;;21.25;100.00;102193.16;2010090;71;30913;-73
2022/08/05 09:09:02;;;;;;;10.67;9.67;;;;;;;21.33;100.00;102195.20;2019113;71;30937;-74
2022/08/05 09:14:49;;;;;;;10.10;9.50;;;;;;;21.86;100.00;102203.29;1995426;71;30863;-76
2022/08/05 09:20:35;;;;;;;10.73;10.03;;;;;;;21.88;100.00;102198.95;2002575;71;30797;-77
2022/08/05 09:26:24;;;;;;;10.28;9.65;;;;;;;22.04;100.00;102202.17;2004241;71;31396;-77
2022/08/05 09:32:10;;;;;;;10.78;10.18;;;;;;;21.92;100.00;102211.86;2015172;71;31434;-76
2022/08/05 09:38:07;;;;;;;11.10;10.60;;;;;;;22.02;100.00;102211.02;2006253;71;30792;-75
2022/08/05 09:43:54;;;;;;;10.87;10.37;;;;;;;21.80;100.00;102217.58;1998861;71;30828;-76
2022/08/05 09:49:45;;;;;;;10.63;9.95;;;;;;;22.06;100.00;102202.12;2011970;71;30859;-76
2022/08/05 09:55:38;;;;;;;10.60;10.00;;;;;;;22.19;100.00;102206.80;1997060;71;30809;-76
2022/08/05 10:01:27;;;;;;;10.20;9.70;;;;;;;22.21;100.00;102207.86;1994346;71;30910;-77
2022/08/05 10:07:13;;;;;;;11.20;10.57;;;;;;;22.19;100.00;102207.38;2000981;71;30806;-76
2022/08/05 10:13:08;;;;;;;10.90;10.30;;;;;;;22.12;100.00;102205.02;2000983;71;31368;-76
2022/08/05 10:18:56;;;;;;;9.83;9.43;;;;;;;22.10;100.00;102210.77;2018735;71;31448;-76
2022/08/05 10:24:41;;;;;;;9.65;9.20;;;;;;;22.44;100.00;102203.73;2004748;71;30808;-76
2022/08/05 10:30:27;;;;;;;9.88;9.28;;;;;;;22.27;100.00;102202.30;2011856;71;30975;-75
2022/08/05 10:36:13;;;;;;;9.50;9.00;;;;;;;22.16;100.00;102209.47;2017097;71;31480;-74
2022/08/05 10:42:04;;;;;;;9.95;9.45;;;;;;;22.16;100.00;102209.47;1994310;71;31349;-76
2022/08/05 10:47:49;;;;;;;10.20;9.60;;;;;;;22.12;100.00;102205.63;1996231;70;31048;-73
2022/08/05 10:53:43;;;;;;;10.50;9.88;;;;;;;22.14;100.00;102213.19;2015252;71;30854;-76
2022/08/05 10:59:32;;;;;;;10.82;10.18;;;;;;;22.41;100.00;102224.80;2013417;71;31503;-72
2022/08/05 11:05:23;;;;;;;10.50;9.60;;;;;;;22.48;100.00;102223.14;2012993;71;30976;-73
2022/08/05 11:15:07;;;;;;;10.30;9.65;;;;;;;22.54;100.00;102221.81;2002798;71;30996;-70
2022/08/05 11:20:53;;;;;;;11.38;10.55;;;;;;;22.62;100.00;102237.14;2004676;71;31301;-71
2022/08/05 11:27:13;;;;;;;10.60;10.10;;;;;;;22.60;100.00;102226.13;2017065;71;30874;-72
2022/08/05 11:33:29;;;;;;;10.23;9.73;;;;;;;22.63;100.00;102235.98;2011814;71;30809;-72
2022/08/05 11:39:19;;;;;;;8.90;8.50;;;;;;;22.73;100.00;102254.07;2015288;71;31341;-73
2022/08/05 11:45:10;;;;;;;12.90;10.20;;;;;;;22.13;100.00;102258.22;1995241;71;30809;-71
2022/08/05 11:50:54;;;;;;;9.63;9.13;;;;;;;22.39;100.00;102243.53;2011451;71;31380;-72
2022/08/05 11:56:47;;;;;;;11.10;10.50;;;;;;;22.58;100.00;102245.47;2014003;71;30802;-73
2022/08/05 11:59:21;;;;;;;10.63;9.90;;;;;;;22.50;100.00;102249.72;1980327;72;24607;-73
2022/08/05 12:05:12;;;;;;;13.55;12.70;;;;;;;22.83;100.00;102233.08;2004115;71;30939;-71
2022/08/05 12:11:03;;;;;;;10.08;9.58;;;;;;;22.88;100.00;102251.33;2016927;71;30946;-72
2022/08/05 12:16:49;;;;;;;10.00;9.50;;;;;;;22.95;100.00;102245.97;2007807;71;34134;-71
2022/08/05 12:22:35;;;;;;;9.60;9.13;;;;;;;22.91;100.00;102241.56;2002865;71;31347;-71
2022/08/05 12:28:38;;;;;;;9.58;9.08;;;;;;;22.91;100.00;102258.56;2005739;71;30936;-72
2022/08/05 12:34:27;;;;;;;10.43;9.93;;;;;;;22.88;100.00;102261.24;2016842;71;30928;-72
2022/08/05 12:40:14;;;;;;;10.80;10.30;;;;;;;22.94;100.00;102265.55;2013247;71;30960;-72
2022/08/05 12:45:59;;;;;;;10.32;9.85;;;;;;;22.98;100.00;102261.72;2000367;71;31414;-71
2022/08/05 12:51:48;;;;;;;10.63;10.13;;;;;;;23.03;100.00;102268.64;2013682;71;30869;-72
2022/08/05 12:57:38;;;;;;;10.28;9.68;;;;;;;23.01;100.00;102270.16;2007986;71;30882;-73
2022/08/05 13:03:39;;;;;;;9.40;9.00;;;;;;;23.33;100.00;102276.67;2004005;71;30857;-73
2022/08/05 13:09:25;;;;;;;10.35;9.78;;;;;;;23.09;100.00;102284.31;2005783;71;30982;-73
2022/08/05 13:15:17;;;;;;;9.73;9.43;;;;;;;22.94;100.00;102274.89;2018586;71;30975;-72
2022/08/05 13:21:11;;;;;;;10.30;9.80;;;;;;;23.02;100.00;102283.97;2007993;71;30802;-72
2022/08/05 13:26:56;;;;;;;10.43;9.93;;;;;;;23.07;100.00;102293.72;2016718;71;30914;-72
2022/08/05 13:32:47;;;;;;;9.10;8.68;;;;;;;23.08;100.00;102295.40;1995429;71;30882;-70
2022/08/05 13:38:32;;;;;;;10.95;10.25;;;;;;;23.02;100.00;102302.97;2013318;71;30869;-70
2022/08/05 13:44:18;;;;;;;10.30;9.70;;;;;;;23.11;100.00;102303.80;2014969;71;32924;-71
2022/08/05 13:50:08;;;;;;;9.65;9.25;;;;;;;23.11;100.00;102296.14;1960322;72;31525;-71
2022/08/05 13:55:54;;;;;;;9.98;9.48;;;;;;;23.21;100.00;102293.55;2018807;71;30925;-70
2022/08/05 14:01:39;;;;;;;10.55;9.95;;;;;;;23.13;100.00;102304.31;2012988;71;30866;-71
2022/08/05 14:07:26;;;;;;;9.63;9.23;;;;;;;23.13;100.00;102307.16;2016737;71;30873;-70
2022/08/05 14:13:11;;;;;;;9.35;8.75;;;;;;;23.18;100.00;102311.81;2005696;71;31366;-71
2022/08/05 14:18:57;;;;;;;8.83;8.43;;;;;;;23.14;100.00;102315.91;2016799;71;31443;-70
2022/08/05 14:24:42;;;;;;;8.65;8.35;;;;;;;23.23;100.00;102306.81;2005720;71;30914;-71
2022/08/05 14:30:28;;;;;;;9.65;9.13;;;;;;;23.15;100.00;102311.89;1991658;71;30792;-70
2022/08/05 14:36:13;;;;;;;9.75;9.15;;;;;;;23.08;100.00;102313.83;2009926;71;30813;-70
2022/08/05 14:42:00;;;;;;;9.38;8.98;;;;;;;23.06;100.00;102308.25;2016732;71;30930;-70
2022/08/05 14:47:45;;;;;;;9.43;8.93;;;;;;;23.15;100.00;102310.47;2014966;71;30938;-71
2022/08/05 14:53:31;;;;;;;9.38;8.98;;;;;;;22.97;100.00;102321.02;2016722;71;30963;-71
2022/08/05 14:59:17;;;;;;;10.45;9.95;;;;;;;22.90;100.00;102320.66;2018734;71;31453;-69
2022/08/05 15:05:02;;;;;;;15.45;14.85;;;;;;;22.91;100.00;102315.83;2009479;71;31441;-70
2022/08/05 15:10:48;;;;;;;9.15;8.73;;;;;;;23.05;99.70;102302.33;2016822;71;31045;-72
2022/08/05 15:16:33;;;;;;;10.72;10.23;;;;;;;23.09;100.00;102311.25;2000129;71;30931;-69
2022/08/05 15:22:19;;;;;;;9.93;9.53;;;;;;;23.16;100.00;102307.89;2000403;71;30865;-71
2022/08/05 15:28:06;;;;;;;10.70;10.20;;;;;;;23.19;97.54;102303.57;2015366;71;31405;-70
2022/08/05 15:33:52;;;;;;;9.65;9.05;;;;;;;23.34;94.66;102304.45;1991872;71;30866;-71
2022/08/05 15:39:37;;;;;;;9.20;8.88;;;;;;;23.25;99.66;102303.05;2002408;71;31359;-72
2022/08/05 15:45:23;;;;;;;9.93;9.43;;;;;;;22.64;100.00;102321.19;2002353;71;31428;-71
2022/08/05 15:51:09;;;;;;;10.18;9.78;;;;;;;22.46;100.00;102322.34;2016822;71;31466;-71
2022/08/05 15:56:54;;;;;;;10.13;9.73;;;;;;;23.14;100.00;102313.91;1995024;71;30866;-71
2022/08/05 16:02:40;;;;;;;10.25;9.83;;;;;;;23.33;96.36;102305.03;2011233;71;31365;-74
2022/08/05 16:08:25;;;;;;;10.55;9.85;;;;;;;23.41;100.00;102305.59;2014983;71;30993;-71
2022/08/05 16:14:14;;;;;;;9.73;9.23;;;;;;;23.51;100.00;102305.86;2009328;71;30849;-72
2022/08/05 16:20:08;;;;;;;10.20;9.65;;;;;;;23.47;100.00;102310.54;2014922;71;30859;-71
2022/08/05 16:26:07;;;;;;;10.78;10.28;;;;;;;23.40;100.00;102308.78;2002435;71;30932;-73
2022/08/05 16:31:56;;;;;;;10.43;9.90;;;;;;;23.40;96.39;102307.37;2000318;71;30888;-72
2022/08/05 16:37:43;;;;;;;10.25;9.75;;;;;;;23.46;98.96;102298.94;2013896;71;31375;-73
2022/08/05 16:43:31;;;;;;;9.08;8.63;;;;;;;23.41;94.18;102301.34;2013138;71;31019;-73
2022/08/05 16:49:17;;;;;;;9.00;8.65;;;;;;;23.49;97.06;102294.03;1995297;71;30793;-71
2022/08/05 16:55:03;;;;;;;9.18;8.60;;;;;;;23.56;90.49;102295.75;2011832;71;30905;-73
2022/08/05 17:00:48;;;;;;;10.28;9.80;;;;;;;23.62;100.00;102295.00;1991788;71;30836;-74
2022/08/05 17:06:35;;;;;;;10.15;9.68;;;;;;;23.57;100.00;102302.52;2007720;71;30864;-73
2022/08/05 17:12:21;;;;;;;10.20;9.60;;;;;;;23.54;100.00;102300.34;2004501;71;30900;-76
2022/08/05 17:18:07;;;;;;;10.55;9.95;;;;;;;23.53;96.75;102304.95;2000563;71;30991;-76
2022/08/05 17:23:52;;;;;;;9.55;9.18;;;;;;;23.53;95.84;102300.70;2018560;71;30881;-75
2022/08/05 17:29:37;;;;;;;9.48;9.13;;;;;;;23.53;100.00;102304.34;2013199;71;30936;-77
2022/08/05 17:35:23;;;;;;;10.00;9.50;;;;;;;23.53;100.00;102313.45;2016701;71;30848;-74
2022/08/05 17:41:08;;;;;;;9.78;9.25;;;;;;;23.47;100.00;102304.28;2011278;71;31420;-72
2022/08/05 17:46:55;;;;;;;9.73;9.30;;;;;;;23.55;100.00;102306.27;2005995;71;30962;-73
2022/08/05 17:52:40;;;;;;;10.28;9.75;;;;;;;23.03;100.00;102320.23;2018644;71;31460;-71
2022/08/05 17:58:26;;;;;;;9.70;9.20;;;;;;;22.73;100.00;102319.23;1995242;71;30797;-74
2022/08/05 18:04:11;;;;;;;9.88;9.38;;;;;;;23.10;100.00;102318.56;2015038;71;30884;-74
2022/08/05 18:09:56;;;;;;;9.48;9.08;;;;;;;23.05;100.00;102330.67;2018596;71;30926;-74
2022/08/05 18:15:41;;;;;;;8.90;8.60;;;;;;;22.67;100.00;102336.97;2015040;71;30864;-73
2022/08/05 18:21:27;;;;;;;9.33;8.88;;;;;;;23.21;100.00;102340.33;2002619;71;30861;-74
2022/08/05 18:27:12;;;;;;;9.63;9.23;;;;;;;22.40;100.00;102349.14;2007857;71;30853;-74
2022/08/05 18:32:57;;;;;;;9.93;9.53;;;;;;;21.98;100.00;102359.98;2013550;71;30797;-73
2022/08/05 18:38:42;;;;;;;10.35;9.78;;;;;;;21.61;100.00;102361.23;2011479;71;31426;-73
2022/08/05 18:44:31;;;;;;;8.98;8.68;;;;;;;21.42;100.00;102374.77;2018472;71;30861;-72
2022/08/05 18:56:18;;;;;;;9.53;9.13;;;;;;;21.20;100.00;102384.64;2009578;71;31337;-75
2022/08/05 19:02:03;;;;;;;10.03;9.63;;;;;;;21.27;100.00;102387.84;2002820;71;30801;-75
2022/08/05 19:07:51;;;;;;;9.63;9.17;;;;;;;21.08;100.00;102386.59;2018807;71;30860;-75
2022/08/05 19:13:37;;;;;;;9.30;8.80;;;;;;;21.91;100.00;102392.69;2014989;71;30864;-72
2022/08/05 19:19:24;;;;;;;9.15;8.65;;;;;;;22.59;100.00;102391.58;2009926;71;30795;-75
2022/08/05 19:25:12;;;;;;;9.43;9.03;;;;;;;22.09;100.00;102410.89;2004419;70;30855;-73
2022/08/05 19:30:59;;;;;;;9.50;9.10;;;;;;;22.20;100.00;102410.04;2009689;71;30960;-74
2022/08/05 19:36:44;;;;;;;9.77;9.37;;;;;;;20.54;100.00;102429.89;2009655;71;30857;-75
2022/08/05 19:42:30;;;;;;;9.47;9.13;;;;;;;19.99;100.00;102438.28;2011341;71;30929;-75
2022/08/05 19:48:20;;;;;;;9.40;9.00;;;;;;;19.81;100.00;102449.64;2008177;71;30862;-73
2022/08/05 19:54:07;;;;;;;9.90;9.40;;;;;;;19.88;100.00;102456.55;2016720;70;30931;-72
2022/08/05 19:59:53;;;;;;;9.50;8.90;;;;;;;19.67;100.00;102471.31;2006211;71;30800;-75
2022/08/05 20:05:39;;;;;;;9.90;9.40;;;;;;;19.55;100.00;102476.02;1994896;71;31472;-73
2022/08/05 20:11:25;;;;;;;9.90;9.10;;;;;;;19.41;100.00;102499.88;2014818;71;30858;-75
2022/08/05 20:17:11;;;;;;;9.40;8.80;;;;;;;19.42;100.00;102495.08;2008286;71;30888;-73
2022/08/05 20:23:03;;;;;;;10.17;9.60;;;;;;;19.35;100.00;102510.94;2016645;71;30865;-72
2022/08/05 20:28:50;;;;;;;10.23;9.63;;;;;;;19.30;100.00;102518.05;2009366;71;30856;-72
2022/08/05 20:34:36;;;;;;;9.90;9.30;;;;;;;19.24;100.00;102523.52;2018605;71;33310;-73
2022/08/05 20:40:22;;;;;;;9.60;9.20;;;;;;;19.04;100.00;102532.22;2008218;71;31368;-75
2022/08/05 20:46:10;;;;;;;10.23;9.83;;;;;;;18.81;100.00;102540.98;2014784;71;30923;-71
2022/08/05 20:51:57;;;;;;;10.17;9.67;;;;;;;18.74;100.00;102554.55;1991382;71;30891;-72
2022/08/05 20:57:43;;;;;;;10.73;9.40;;;;;;;18.58;100.00;102557.27;2009451;71;31461;-74
2022/08/05 21:03:31;;;;;;;9.83;9.33;;;;;;;18.30;100.00;102559.51;2009731;71;30873;-73
2022/08/05 21:09:18;;;;;;;9.70;9.20;;;;;;;18.46;100.00;102566.09;2005832;71;30969;-76
2022/08/05 21:15:04;;;;;;;9.80;9.33;;;;;;;18.42;100.00;102572.05;2005660;71;30859;-75
2022/08/05 21:20:50;;;;;;;9.63;9.23;;;;;;;18.28;100.00;102582.86;2010127;71;30904;-75
2022/08/05 21:26:35;;;;;;;9.60;9.20;;;;;;;18.21;100.00;102600.09;2004575;71;30792;-74
2022/08/05 21:32:20;;;;;;;9.50;9.00;;;;;;;18.17;100.00;102604.07;2006206;71;31395;-74
2022/08/05 21:38:05;;;;;;;9.20;8.80;;;;;;;18.00;100.00;102604.20;1994747;71;31004;-76
2022/08/05 21:43:53;;;;;;;9.40;9.00;;;;;;;18.02;100.00;102609.80;2001099;71;30794;-74
2022/08/05 21:49:39;;;;;;;9.07;8.60;;;;;;;17.84;100.00;102614.70;1996946;71;32825;-74
2022/08/05 21:55:24;;;;;;;9.40;8.80;;;;;;;17.80;100.00;102632.47;2011883;71;32757;-75
2022/08/05 22:01:09;;;;;;;9.40;9.00;;;;;;;18.29;100.00;102635.19;2009492;71;33391;-75
2022/08/05 22:06:54;;;;;;;9.30;8.80;;;;;;;17.71;100.00;102640.67;2000211;71;30925;-75
2022/08/05 22:12:42;;;;;;;9.47;8.83;;;;;;;17.52;100.00;102644.67;1994835;71;30847;-74
2022/08/05 22:18:28;;;;;;;9.30;8.80;;;;;;;17.61;100.00;102644.94;2004279;71;32963;-75
2022/08/05 22:30:16;;;;;;;9.70;9.13;;;;;;;17.45;100.00;102655.39;2005785;71;32785;-76
2022/08/05 22:36:01;;;;;;;9.47;8.97;;;;;;;17.34;100.00;102658.51;2003867;71;30849;-76
2022/08/05 22:41:46;;;;;;;9.73;9.23;;;;;;;17.09;100.00;102660.84;1995412;71;32729;-75
2022/08/05 22:47:31;;;;;;;9.50;9.00;;;;;;;17.10;100.00;102669.55;2009700;71;33282;-76
2022/08/05 22:53:16;;;;;;;9.73;9.30;;;;;;;16.95;100.00;102678.84;2018517;71;33074;-76
2022/08/05 22:59:01;;;;;;;9.33;8.97;;;;;;;16.82;100.00;102688.69;2016738;71;30850;-75
2022/08/05 23:04:46;;;;;;;9.57;9.17;;;;;;;17.09;100.00;102691.17;2011785;71;32925;-74
2022/08/05 23:10:31;;;;;;;9.43;9.00;;;;;;;16.80;100.00;102706.95;1995325;71;30875;-74
2022/08/05 23:16:16;;;;;;;9.57;9.07;;;;;;;16.83;100.00;102702.16;2005885;71;32897;-75
2022/08/05 23:22:01;;;;;;;9.63;9.13;;;;;;;17.26;100.00;102706.29;1991772;71;32815;-75
2022/08/05 23:27:48;;;;;;;9.40;9.00;;;;;;;17.06;100.00;102707.19;2000281;71;33360;-73
2022/08/05 23:33:33;;;;;;;9.70;9.30;;;;;;;17.03;100.00;102718.97;2004583;71;33279;-75
2022/08/05 23:39:19;;;;;;;10.13;9.63;;;;;;;16.75;100.00;102716.21;1991515;71;30801;-74
2022/08/05 23:45:05;;;;;;;11.27;10.57;;;;;;;16.99;100.00;102720.66;2008384;71;31384;-74
2022/08/05 23:50:53;;;;;;;11.10;10.40;;;;;;;16.57;100.00;102741.14;2018731;71;33349;-73
2022/08/05 23:56:38;;;;;;;11.57;11.07;;;;;;;16.55;100.00;102738.63;2006232;71;32760;-73
